Time;durP1;ratioP1;P1;durP2;ratioP2;P2;SDS_P1;SDS_P2;PMS_P1;PMS_P2;Temp;Humidity;BMP_temperature;BMP_pressure;BME280_temperature;BME280_humidity;BME280_pressure;Samples;Min_cycle;Max_cycle;Signal;HPM_P1;HPM_P2
2022/03/18 00:02:06;;;;;;;2.90;0.88;;;5.00;71.20;;;;;;5029400;28;20436;-66
2022/03/18 00:04:31;;;;;;;3.15;1.13;;;5.10;71.30;;;;;;5029562;28;20029;-66
2022/03/18 00:06:57;;;;;;;3.00;1.15;;;5.00;71.80;;;;;;5011740;28;20052;-67
2022/03/18 00:09:22;;;;;;;2.10;1.10;;;5.00;71.30;;;;;;5029385;28;20456;-67
2022/03/18 00:11:48;;;;;;;3.72;1.20;;;4.90;71.50;;;;;;5029397;28;20034;-66
2022/03/18 00:14:14;;;;;;;2.15;0.85;;;4.90;71.70;;;;;;5029645;28;20378;-66
2022/03/18 00:16:40;;;;;;;2.42;1.40;;;4.90;72.00;;;;;;5029513;28;20104;-67
2022/03/18 00:19:06;;;;;;;2.45;0.93;;;4.80;72.10;;;;;;5029232;28;20092;-67
2022/03/18 00:21:34;;;;;;;4.47;1.27;;;4.70;72.30;;;;;;5029194;28;20450;-67
2022/03/18 00:24:00;;;;;;;3.45;1.40;;;4.70;72.40;;;;;;5011415;28;20041;-67
2022/03/18 00:26:25;;;;;;;3.85;1.48;;;4.70;72.50;;;;;;5029105;28;20029;-66
2022/03/18 00:28:51;;;;;;;3.58;1.95;;;4.70;72.50;;;;;;5029051;28;20079;-67
2022/03/18 00:31:16;;;;;;;3.58;1.80;;;4.60;72.50;;;;;;5008790;28;20027;-67
2022/03/18 00:33:42;;;;;;;3.22;1.60;;;4.60;72.70;;;;;;5028758;28;20034;-67
2022/03/18 00:36:07;;;;;;;5.30;2.40;;;4.60;72.80;;;;;;5011084;28;20033;-66
2022/03/18 00:38:34;;;;;;;4.15;1.67;;;4.50;72.90;;;;;;5028952;28;20030;-67
2022/03/18 00:41:00;;;;;;;3.97;1.95;;;4.50;73.00;;;;;;5029280;28;20028;-66
2022/03/18 00:43:26;;;;;;;6.20;1.77;;;4.50;73.20;;;;;;5028819;28;20033;-67
2022/03/18 00:45:51;;;;;;;5.15;1.52;;;4.40;73.30;;;;;;5028812;28;20036;-66
2022/03/18 00:53:45;;;;;;;3.30;1.48;;;4.30;73.70;;;;;;5028311;28;20067;-66
2022/03/18 00:56:11;;;;;;;4.70;1.65;;;4.30;73.90;;;;;;5028596;28;20073;-67
2022/03/18 00:58:36;;;;;;;6.07;1.98;;;4.20;73.90;;;;;;5010775;28;20024;-66
2022/03/18 01:01:02;;;;;;;3.00;1.50;;;4.20;74.00;;;;;;5007994;28;20025;-66
2022/03/18 01:03:28;;;;;;;5.47;1.77;;;4.20;74.10;;;;;;5028968;28;20029;-67
2022/03/18 01:05:53;;;;;;;3.40;1.50;;;4.20;74.10;;;;;;5028545;28;20028;-66
2022/03/18 01:08:19;;;;;;;4.35;2.03;;;4.10;74.10;;;;;;5028547;28;20022;-66
2022/03/18 01:10:44;;;;;;;2.88;1.67;;;4.10;74.30;;;;;;5016098;28;20032;-67
2022/03/18 01:13:10;;;;;;;8.05;2.35;;;4.10;74.40;;;;;;5028157;28;20021;-67
2022/03/18 01:15:36;;;;;;;3.65;1.90;;;4.10;74.50;;;;;;5028405;28;20033;-66
2022/03/18 01:18:02;;;;;;;4.63;1.83;;;4.10;74.50;;;;;;5028211;28;20029;-67
2022/03/18 01:20:28;;;;;;;3.35;1.42;;;4.10;74.60;;;;;;5028645;28;20550;-66
2022/03/18 01:22:54;;;;;;;4.65;2.05;;;4.00;74.60;;;;;;5007800;28;20308;-66
2022/03/18 01:25:20;;;;;;;3.92;1.65;;;4.00;74.70;;;;;;5028193;28;20124;-67
2022/03/18 01:27:46;;;;;;;3.90;1.67;;;4.00;75.00;;;;;;5028118;28;20079;-66
2022/03/18 01:30:13;;;;;;;4.68;1.70;;;3.90;75.10;;;;;;5028103;28;20021;-67
2022/03/18 01:32:39;;;;;;;2.80;1.55;;;3.90;75.30;;;;;;5007437;28;20025;-67
2022/03/18 01:35:05;;;;;;;4.72;1.73;;;3.90;75.50;;;;;;5027962;28;20022;-66
2022/03/18 01:37:31;;;;;;;4.72;2.00;;;3.90;75.60;;;;;;5010181;28;20041;-66
2022/03/18 01:39:56;;;;;;;3.90;1.70;;;3.90;75.60;;;;;;5028027;28;20488;-66
2022/03/18 01:42:22;;;;;;;4.40;1.73;;;3.90;75.80;;;;;;5027971;28;20447;-66
2022/03/18 01:44:47;;;;;;;6.10;2.10;;;3.80;75.90;;;;;;5025368;28;20037;-66
2022/03/18 01:47:13;;;;;;;8.25;2.88;;;3.80;76.00;;;;;;5027908;28;20022;-66
2022/03/18 01:49:39;;;;;;;4.15;2.45;;;3.70;76.70;;;;;;5029316;28;20049;-66
2022/03/18 01:52:06;;;;;;;4.22;2.25;;;3.60;76.90;;;;;;5028524;28;20095;-66
2022/03/18 01:54:44;;;;;;;4.13;1.90;;;3.50;77.10;;;;;;5027626;28;20026;-65
2022/03/18 01:57:11;;;;;;;3.83;1.50;;;3.50;77.30;;;;;;5027870;28;20017;-66
2022/03/18 01:59:37;;;;;;;2.60;1.38;;;3.50;77.40;;;;;;5027652;28;20029;-66
2022/03/18 02:02:03;;;;;;;3.30;2.08;;;3.40;77.50;;;;;;5027599;28;20042;-66
2022/03/18 02:04:29;;;;;;;3.70;1.60;;;3.40;77.60;;;;;;5027569;28;20473;-66
2022/03/18 02:06:56;;;;;;;3.70;2.00;;;3.40;77.60;;;;;;5028087;28;20094;-66
2022/03/18 02:09:22;;;;;;;4.82;2.00;;;3.50;77.70;;;;;;5027921;28;20028;-67
2022/03/18 02:11:48;;;;;;;4.78;1.88;;;3.40;77.70;;;;;;5027797;28;20389;-66
2022/03/18 02:14:14;;;;;;;4.45;1.48;;;3.40;77.70;;;;;;5027734;28;20112;-67
2022/03/18 02:16:40;;;;;;;4.63;1.95;;;3.40;77.90;;;;;;5031303;28;20101;-67
2022/03/18 02:19:08;;;;;;;4.07;1.65;;;3.40;78.00;;;;;;5014065;28;20106;-67
2022/03/18 02:21:37;;;;;;;3.08;1.75;;;3.40;78.10;;;;;;5031716;28;20389;-66
2022/03/18 02:24:04;;;;;;;3.42;1.85;;;3.30;78.10;;;;;;5031704;28;20385;-67
2022/03/18 02:26:29;;;;;;;5.03;1.98;;;3.30;78.30;;;;;;5031553;28;20063;-67
2022/03/18 02:28:57;;;;;;;4.10;1.58;;;3.30;78.40;;;;;;5031823;28;20334;-66
2022/03/18 02:31:29;;;;;;;3.50;1.80;;;3.20;78.50;;;;;;5031404;28;20481;-66
2022/03/18 02:33:54;;;;;;;4.55;2.10;;;3.20;78.60;;;;;;5013692;28;20450;-67
2022/03/18 02:36:20;;;;;;;4.78;2.72;;;3.20;78.70;;;;;;5031534;28;20096;-67
2022/03/18 02:38:45;;;;;;;4.78;2.55;;;3.10;78.80;;;;;;5031221;28;20083;-67
2022/03/18 02:41:13;;;;;;;5.82;2.50;;;3.10;79.00;;;;;;5031087;28;20064;-67
2022/03/18 02:43:39;;;;;;;4.28;2.67;;;3.10;79.10;;;;;;5013195;28;20033;-67
2022/03/18 02:46:06;;;;;;;5.90;2.47;;;3.10;79.10;;;;;;5031083;28;20022;-66
2022/03/18 02:48:31;;;;;;;5.25;2.45;;;3.10;79.20;;;;;;5031438;28;20463;-66
2022/03/18 02:50:57;;;;;;;3.80;2.22;;;3.00;79.30;;;;;;5031089;28;20497;-66
2022/03/18 02:53:22;;;;;;;4.97;2.03;;;3.00;79.40;;;;;;5010453;28;20026;-66
2022/03/18 02:55:48;;;;;;;3.60;1.60;;;2.90;79.50;;;;;;5031008;28;20125;-66
2022/03/18 02:58:14;;;;;;;6.28;2.25;;;2.90;79.70;;;;;;5030891;28;20026;-66
2022/03/18 03:00:39;;;;;;;4.50;1.80;;;2.90;79.80;;;;;;5030942;28;20053;-66
2022/03/18 03:03:05;;;;;;;3.63;1.95;;;2.80;79.90;;;;;;5030610;28;20032;-67
2022/03/18 03:08:15;;;;;;;4.18;1.75;;;2.90;80.00;;;;;;5031039;28;20092;-66
2022/03/18 03:10:42;;;;;;;4.38;2.17;;;2.80;80.00;;;;;;5013085;28;20021;-66
2022/03/18 03:13:10;;;;;;;4.20;1.88;;;2.80;80.00;;;;;;5010136;28;20032;-67
2022/03/18 03:15:37;;;;;;;5.20;2.08;;;2.80;80.10;;;;;;5030503;28;20022;-66
2022/03/18 03:18:02;;;;;;;5.05;2.50;;;2.80;80.20;;;;;;5030572;28;20452;-66
2022/03/18 03:20:28;;;;;;;4.90;2.30;;;2.80;80.30;;;;;;5030397;28;20141;-67
2022/03/18 03:22:53;;;;;;;3.28;1.73;;;2.80;80.40;;;;;;5030362;28;20456;-67
2022/03/18 03:25:19;;;;;;;3.63;1.90;;;2.80;80.50;;;;;;5030720;28;20075;-66
2022/03/18 03:27:44;;;;;;;4.35;1.95;;;2.70;80.60;;;;;;5011157;28;20021;-67
2022/03/18 03:30:11;;;;;;;5.30;2.00;;;2.70;81.40;;;;;;5030290;28;20029;-66
2022/03/18 03:32:37;;;;;;;4.70;1.98;;;2.70;80.80;;;;;;5030330;28;20029;-66
2022/03/18 03:35:05;;;;;;;3.47;1.17;;;2.60;80.90;;;;;;5030423;28;20614;-67
2022/03/18 03:37:31;;;;;;;4.05;2.30;;;2.60;81.10;;;;;;5027485;28;20029;-66
2022/03/18 03:39:56;;;;;;;4.13;1.45;;;2.60;81.30;;;;;;5030252;28;20022;-66
2022/03/18 03:42:22;;;;;;;3.25;1.88;;;2.50;81.40;;;;;;5030117;28;20032;-67
2022/03/18 03:44:48;;;;;;;3.22;1.75;;;2.50;81.40;;;;;;5029743;28;20048;-67
2022/03/18 03:47:14;;;;;;;4.95;1.90;;;2.50;81.60;;;;;;5031211;28;20029;-66
2022/03/18 03:49:39;;;;;;;2.95;1.65;;;2.50;81.80;;;;;;5030098;28;20099;-67
2022/03/18 03:52:08;;;;;;;3.22;1.60;;;2.40;81.80;;;;;;5029693;28;20378;-67
2022/03/18 03:54:34;;;;;;;2.90;1.40;;;2.40;81.90;;;;;;5029545;28;20018;-66
2022/03/18 03:57:00;;;;;;;3.30;1.58;;;2.40;82.00;;;;;;5029702;28;20095;-67
2022/03/18 03:59:25;;;;;;;3.47;1.40;;;2.30;82.00;;;;;;5029727;28;20427;-66
2022/03/18 04:01:51;;;;;;;4.07;2.40;;;2.30;82.10;;;;;;5022734;28;20079;-66
2022/03/18 04:04:16;;;;;;;6.93;2.60;;;2.30;82.20;;;;;;5011867;28;20111;-66
2022/03/18 04:06:42;;;;;;;5.75;2.67;;;2.30;82.30;;;;;;5008916;28;20025;-67
2022/03/18 04:09:08;;;;;;;6.30;3.33;;;2.30;82.40;;;;;;5029820;28;20366;-66
2022/03/18 04:11:34;;;;;;;4.63;3.08;;;2.30;82.40;;;;;;5029575;28;20482;-66
2022/03/18 04:13:59;;;;;;;5.25;3.35;;;2.30;82.40;;;;;;5029455;28;20515;-66
2022/03/18 04:16:25;;;;;;;6.40;3.90;;;2.30;82.50;;;;;;5029323;28;20025;-66
2022/03/18 04:18:50;;;;;;;4.85;3.33;;;2.30;82.50;;;;;;5029479;28;20044;-67
2022/03/18 04:21:16;;;;;;;7.03;3.05;;;2.30;82.40;;;;;;5029427;28;20453;-66
2022/03/18 04:23:41;;;;;;;5.88;3.13;;;2.30;82.50;;;;;;5029386;28;20018;-66
2022/03/18 04:26:07;;;;;;;6.22;3.33;;;2.30;82.50;;;;;;5029423;28;20029;-66
2022/03/18 04:28:33;;;;;;;5.07;3.28;;;2.30;82.60;;;;;;5029168;28;20026;-67
2022/03/18 04:30:58;;;;;;;4.90;3.03;;;2.30;82.60;;;;;;5029356;28;20030;-66
2022/03/18 04:33:24;;;;;;;7.22;3.38;;;2.30;82.70;;;;;;5028948;28;20401;-66
2022/03/18 04:35:51;;;;;;;5.18;3.42;;;2.30;82.80;;;;;;5029024;28;20033;-66
2022/03/18 04:38:17;;;;;;;6.78;3.30;;;2.20;82.80;;;;;;5011211;28;20021;-66
2022/03/18 04:40:42;;;;;;;5.40;2.90;;;2.20;83.00;;;;;;5028914;28;20028;-66
2022/03/18 04:43:08;;;;;;;5.32;3.22;;;2.10;83.20;;;;;;5028957;28;20032;-66
2022/03/18 04:45:33;;;;;;;4.32;2.60;;;2.10;83.30;;;;;;5028813;28;20112;-66
2022/03/18 04:47:59;;;;;;;5.68;2.47;;;2.10;83.50;;;;;;5028923;28;20033;-66
2022/03/18 04:50:25;;;;;;;3.53;2.28;;;2.00;83.60;;;;;;5028698;28;20048;-66
2022/03/18 04:52:50;;;;;;;4.85;2.60;;;2.00;83.80;;;;;;5029192;28;20041;-67
2022/03/18 04:55:16;;;;;;;3.25;1.73;;;2.00;83.80;;;;;;5028593;28;20409;-67
2022/03/18 04:57:42;;;;;;;4.50;2.50;;;2.00;83.90;;;;;;5029047;28;20034;-66
2022/03/18 05:00:08;;;;;;;4.82;2.05;;;2.00;84.00;;;;;;5028727;28;20033;-67
2022/03/18 05:02:35;;;;;;;2.45;1.67;;;2.00;84.20;;;;;;5028632;28;20129;-66
2022/03/18 05:05:02;;;;;;;3.38;2.08;;;2.00;84.20;;;;;;5028663;28;20029;-67
2022/03/18 05:07:28;;;;;;;3.05;1.88;;;2.00;84.30;;;;;;5028295;28;20499;-67
2022/03/18 05:09:54;;;;;;;4.95;1.92;;;2.00;84.30;;;;;;5028546;28;20555;-66
2022/03/18 05:12:19;;;;;;;3.88;2.42;;;2.00;84.40;;;;;;5007976;28;20120;-66
2022/03/18 05:14:45;;;;;;;3.60;2.20;;;2.00;84.40;;;;;;5028292;28;20436;-66
2022/03/18 05:17:12;;;;;;;4.80;2.30;;;2.00;84.50;;;;;;5028438;28;20096;-66
2022/03/18 05:19:38;;;;;;;4.47;2.75;;;1.90;84.60;;;;;;5026081;28;20028;-66
2022/03/18 05:22:06;;;;;;;5.70;2.78;;;1.90;84.60;;;;;;5028304;28;20037;-66
2022/03/18 05:24:31;;;;;;;5.03;2.88;;;1.90;84.80;;;;;;5028234;28;20100;-66
2022/03/18 05:26:57;;;;;;;6.85;2.97;;;1.90;84.80;;;;;;5028135;28;20136;-66
2022/03/18 05:29:25;;;;;;;5.93;3.10;;;1.90;84.90;;;;;;5028116;28;20033;-66
2022/03/18 05:31:51;;;;;;;6.43;3.42;;;1.90;85.00;;;;;;5008058;28;20481;-66
2022/03/18 05:34:16;;;;;;;5.30;2.63;;;1.90;85.10;;;;;;5007462;28;20032;-66
2022/03/18 05:36:43;;;;;;;4.80;2.50;;;1.80;85.20;;;;;;5028009;28;20039;-66
2022/03/18 05:39:09;;;;;;;4.18;2.45;;;1.90;85.30;;;;;;5027957;28;20017;-66
2022/03/18 05:41:35;;;;;;;3.85;1.98;;;1.90;85.30;;;;;;5028098;28;20044;-66
2022/03/18 05:44:00;;;;;;;3.47;2.25;;;1.80;85.30;;;;;;5028200;28;20028;-66
2022/03/18 05:46:26;;;;;;;3.97;2.13;;;1.80;85.40;;;;;;5027826;28;20041;-67
2022/03/18 05:48:52;;;;;;;3.63;1.63;;;1.80;85.50;;;;;;5007398;28;20022;-66
2022/03/18 05:51:18;;;;;;;3.53;2.15;;;1.70;85.60;;;;;;5027315;28;20037;-66
2022/03/18 05:53:43;;;;;;;4.13;2.42;;;1.70;85.70;;;;;;5028061;28;20026;-66
2022/03/18 05:58:55;;;;;;;3.63;1.95;;;1.70;86.00;;;;;;5027968;28;20049;-66
2022/03/18 06:01:20;;;;;;;5.00;2.33;;;1.70;86.20;;;;;;5028067;28;20018;-66
2022/03/18 06:03:48;;;;;;;4.35;1.83;;;1.70;86.20;;;;;;5027962;28;20030;-66
2022/03/18 06:06:14;;;;;;;2.08;1.65;;;1.60;86.20;;;;;;5027886;28;20021;-66
2022/03/18 06:14:07;;;;;;;3.33;2.13;;;1.70;86.40;;;;;;5027628;28;20035;-66
2022/03/18 06:16:33;;;;;;;5.10;2.25;;;1.70;86.30;;;;;;5027559;28;20026;-67
2022/03/18 06:18:58;;;;;;;6.18;2.40;;;1.70;86.30;;;;;;5007389;28;20243;-66
2022/03/18 06:21:24;;;;;;;4.13;2.13;;;1.80;86.30;;;;;;5029281;28;20053;-67
2022/03/18 06:23:50;;;;;;;5.10;2.53;;;1.80;86.30;;;;;;5030013;28;20481;-66
2022/03/18 06:26:15;;;;;;;5.65;2.33;;;1.80;86.20;;;;;;5031279;28;20088;-66
2022/03/18 06:28:41;;;;;;;3.85;2.58;;;1.80;86.30;;;;;;5030935;28;20025;-66
2022/03/18 06:31:06;;;;;;;4.15;2.22;;;1.80;86.40;;;;;;5031584;28;20103;-66
2022/03/18 06:33:33;;;;;;;3.83;2.35;;;1.90;86.50;;;;;;5031380;28;20416;-66
2022/03/18 06:35:58;;;;;;;5.93;2.95;;;1.90;86.40;;;;;;5031594;28;20029;-66
2022/03/18 06:38:24;;;;;;;5.63;2.50;;;1.90;86.30;;;;;;5031477;28;20017;-66
2022/03/18 06:40:50;;;;;;;4.03;2.25;;;1.90;86.20;;;;;;5013835;28;20459;-66
2022/03/18 06:43:15;;;;;;;4.25;2.75;;;2.00;86.30;;;;;;5031593;28;20036;-66
2022/03/18 06:45:41;;;;;;;3.67;2.42;;;2.00;86.10;;;;;;5031279;28;20029;-66
2022/03/18 06:48:06;;;;;;;5.95;2.35;;;2.10;86.10;;;;;;5013813;28;20489;-66
2022/03/18 06:50:32;;;;;;;5.63;2.70;;;2.10;86.10;;;;;;5030139;28;20042;-66
2022/03/18 06:52:58;;;;;;;4.75;2.60;;;2.10;86.10;;;;;;5030145;28;20112;-66
2022/03/18 06:55:23;;;;;;;4.13;2.78;;;2.20;86.10;;;;;;5030304;28;20124;-66
2022/03/18 06:57:49;;;;;;;5.68;2.95;;;2.20;86.90;;;;;;5013436;28;20026;-68
2022/03/18 07:00:15;;;;;;;4.50;2.55;;;2.20;86.30;;;;;;5031505;28;20029;-67
2022/03/18 07:02:40;;;;;;;4.07;2.42;;;2.30;86.60;;;;;;5034483;28;20029;-67
2022/03/18 07:05:06;;;;;;;4.10;2.35;;;2.30;86.50;;;;;;5034843;28;20035;-66
2022/03/18 07:07:32;;;;;;;5.28;2.35;;;2.30;86.60;;;;;;5032521;28;20032;-67
2022/03/18 07:09:57;;;;;;;5.50;2.92;;;2.30;86.80;;;;;;5032842;28;20481;-66
2022/03/18 07:12:23;;;;;;;5.93;3.50;;;2.30;87.10;;;;;;5016820;28;20047;-66
2022/03/18 07:14:49;;;;;;;7.03;2.67;;;2.30;87.30;;;;;;5034663;28;20013;-66
2022/03/18 07:19:59;;;;;;;5.25;3.05;;;2.50;87.60;;;;;;5035043;28;20113;-67
2022/03/18 07:22:25;;;;;;;6.15;3.40;;;2.50;87.60;;;;;;5034328;28;20469;-66
2022/03/18 07:24:50;;;;;;;8.65;4.30;;;2.50;88.00;;;;;;5034441;28;20041;-66
2022/03/18 07:27:16;;;;;;;7.32;3.35;;;2.60;88.20;;;;;;5034426;28;20029;-66
2022/03/18 07:29:42;;;;;;;5.40;2.90;;;2.70;88.20;;;;;;5034436;28;20033;-66
2022/03/18 07:32:08;;;;;;;6.50;2.63;;;2.70;88.10;;;;;;5034334;28;20025;-66
2022/03/18 07:34:34;;;;;;;7.07;2.88;;;2.80;88.10;;;;;;5016458;28;20446;-66
2022/03/18 07:36:59;;;;;;;4.53;2.58;;;2.90;88.20;;;;;;5001451;28;20405;-66
2022/03/18 07:39:25;;;;;;;7.82;2.92;;;3.00;88.30;;;;;;5032549;28;20026;-66
2022/03/18 07:41:50;;;;;;;6.50;2.75;;;3.10;88.40;;;;;;5031878;28;20030;-66
2022/03/18 07:44:16;;;;;;;7.45;3.30;;;3.20;88.50;;;;;;5032489;28;20060;-66
2022/03/18 07:46:42;;;;;;;4.13;2.67;;;3.30;88.60;;;;;;5031353;28;20022;-66
2022/03/18 07:49:07;;;;;;;6.40;3.08;;;3.40;88.60;;;;;;5032177;28;20032;-66
2022/03/18 07:51:32;;;;;;;4.75;2.78;;;3.50;88.60;;;;;;5032247;28;20086;-66
2022/03/18 07:53:58;;;;;;;8.15;3.22;;;3.60;88.80;;;;;;5030292;28;20091;-66
2022/03/18 07:56:24;;;;;;;10.98;5.70;;;3.80;89.10;;;;;;5029670;28;20048;-66
2022/03/18 07:58:49;;;;;;;9.57;5.45;;;3.90;90.00;;;;;;5030148;28;20469;-66
2022/03/18 08:01:15;;;;;;;6.13;4.07;;;4.10;90.20;;;;;;5029950;28;20018;-66
2022/03/18 08:03:41;;;;;;;9.75;4.85;;;4.10;90.20;;;;;;5029800;28;20021;-67
2022/03/18 08:06:06;;;;;;;9.10;5.30;;;4.30;90.60;;;;;;5030195;28;20366;-66
2022/03/18 08:08:32;;;;;;;11.93;5.85;;;4.40;91.00;;;;;;5010972;28;20485;-66
2022/03/18 08:10:58;;;;;;;9.63;5.93;;;4.60;91.10;;;;;;5013220;28;20380;-67
2022/03/18 08:13:24;;;;;;;6.78;4.68;;;4.70;91.10;;;;;;5026248;28;20025;-66
2022/03/18 08:15:49;;;;;;;7.05;3.05;;;4.80;91.10;;;;;;5029680;28;20032;-66
2022/03/18 08:18:16;;;;;;;6.15;3.45;;;4.90;91.10;;;;;;5030543;28;20018;-66
2022/03/18 08:20:42;;;;;;;4.97;3.13;;;5.00;91.20;;;;;;5031486;28;20014;-66
2022/03/18 08:23:13;;;;;;;5.13;3.13;;;5.00;91.20;;;;;;5031136;28;20033;-66
2022/03/18 08:25:38;;;;;;;6.75;3.30;;;5.20;91.30;;;;;;5031719;28;20040;-66
2022/03/18 08:28:05;;;;;;;5.03;2.70;;;5.20;91.20;;;;;;5031572;28;20037;-66
2022/03/18 08:30:31;;;;;;;11.43;6.10;;;5.30;91.20;;;;;;5031627;28;20014;-66
2022/03/18 08:32:56;;;;;;;11.05;5.05;;;5.50;91.70;;;;;;5031565;28;20035;-66
2022/03/18 08:35:22;;;;;;;7.43;4.65;;;5.70;91.70;;;;;;5031601;28;20469;-67
2022/03/18 08:37:57;;;;;;;7.75;4.40;;;5.90;91.70;;;;;;5022076;28;20022;-66
2022/03/18 08:40:32;;;;;;;9.57;5.28;;;6.00;91.60;;;;;;5031833;28;20104;-67
2022/03/18 08:42:59;;;;;;;12.52;5.68;;;6.10;91.60;;;;;;5031820;28;20030;-66
2022/03/18 08:45:26;;;;;;;10.20;5.15;;;6.30;92.00;;;;;;5031307;28;20100;-66
2022/03/18 08:47:53;;;;;;;9.68;4.30;;;6.50;91.80;;;;;;5030929;28;20488;-66
2022/03/18 08:50:21;;;;;;;5.95;3.78;;;6.60;91.60;;;;;;5031553;28;20026;-66
2022/03/18 08:52:47;;;;;;;6.63;3.50;;;6.70;91.40;;;;;;5030959;28;20025;-66
2022/03/18 08:55:13;;;;;;;6.90;3.80;;;6.80;91.30;;;;;;5031028;28;20033;-66
2022/03/18 08:57:39;;;;;;;6.20;3.10;;;6.90;91.30;;;;;;5031111;28;20358;-66
2022/03/18 09:00:07;;;;;;;8.82;3.70;;;7.00;91.20;;;;;;5031035;28;20560;-67
2022/03/18 09:02:37;;;;;;;6.57;3.55;;;7.10;91.00;;;;;;5030816;28;20021;-66
2022/03/18 09:05:04;;;;;;;6.63;3.20;;;7.30;90.90;;;;;;5011530;28;20050;-66
2022/03/18 09:07:31;;;;;;;6.65;3.08;;;7.40;90.70;;;;;;5030654;28;20026;-67
2022/03/18 09:09:57;;;;;;;5.30;2.72;;;7.50;90.50;;;;;;5028220;28;20053;-66
2022/03/18 09:12:23;;;;;;;7.05;3.03;;;7.60;90.30;;;;;;5032271;28;20481;-66
2022/03/18 09:14:48;;;;;;;7.70;2.90;;;7.70;90.10;;;;;;5023362;28;20036;-66
2022/03/18 09:17:14;;;;;;;6.68;3.05;;;7.90;89.70;;;;;;5032183;28;20393;-67
2022/03/18 09:19:39;;;;;;;5.50;2.78;;;8.00;89.20;;;;;;5031658;28;20075;-66
2022/03/18 09:22:06;;;;;;;5.05;2.38;;;8.10;88.60;;;;;;5032140;28;20450;-66
2022/03/18 09:24:36;;;;;;;7.68;2.67;;;8.20;88.00;;;;;;5030948;28;20024;-66
2022/03/18 09:27:02;;;;;;;;;;;8.30;87.50;;;;;;5032215;28;20021;-66
2022/03/18 09:29:28;;;;;;;4.85;2.15;;;8.40;87.20;;;;;;5032184;28;19905;-66
2022/03/18 09:31:54;;;;;;;7.68;2.22;;;8.50;86.10;;;;;;5022404;28;20493;-66
2022/03/18 09:34:24;;;;;;;5.40;2.42;;;8.60;85.30;;;;;;5026385;28;20029;-67
2022/03/18 09:36:53;;;;;;;5.03;1.77;;;8.70;84.70;;;;;;5031959;28;20029;-66
2022/03/18 09:39:19;;;;;;;4.82;1.90;;;8.90;83.60;;;;;;5031964;28;20549;-66
2022/03/18 09:41:45;;;;;;;6.32;1.80;;;9.10;82.40;;;;;;5031886;28;20539;-66
2022/03/18 09:44:10;;;;;;;7.00;1.73;;;9.20;81.50;;;;;;5031961;28;20037;-66
2022/03/18 09:46:37;;;;;;;6.55;1.30;;;9.30;80.00;;;;;;5031794;28;20377;-66
2022/03/18 09:49:06;;;;;;;3.88;1.10;;;9.50;78.80;;;;;;5031196;28;20045;-67
2022/03/18 09:51:32;;;;;;;3.67;1.10;;;9.60;77.70;;;;;;5031928;28;20021;-66
2022/03/18 09:53:59;;;;;;;1.90;0.85;;;9.70;77.00;;;;;;5031440;28;20080;-67
2022/03/18 09:56:24;;;;;;;2.72;0.85;;;9.90;76.70;;;;;;5031590;28;20037;-66
2022/03/18 09:58:50;;;;;;;3.17;0.50;;;10.00;75.70;;;;;;5031559;28;20503;-67
2022/03/18 10:01:16;;;;;;;1.90;0.73;;;10.20;74.60;;;;;;5031885;28;20033;-66
2022/03/18 10:03:44;;;;;;;2.85;0.50;;;10.30;73.80;;;;;;5014121;28;20070;-67
2022/03/18 10:06:11;;;;;;;2.90;0.55;;;10.50;72.90;;;;;;5032032;28;20041;-66
2022/03/18 10:08:39;;;;;;;6.13;1.10;;;10.70;72.60;;;;;;5023922;28;20026;-66
2022/03/18 10:11:15;;;;;;;3.50;0.90;;;10.80;70.80;;;;;;5024384;28;20025;-67
2022/03/18 10:13:56;;;;;;;5.10;0.77;;;11.10;70.50;;;;;;5031604;28;20103;-67
2022/03/18 10:16:50;;;;;;;3.22;0.80;;;11.30;69.60;;;;;;5028986;28;20101;-67
2022/03/18 10:19:22;;;;;;;4.72;0.90;;;11.50;68.20;;;;;;5024204;28;20025;-66
2022/03/18 10:21:58;;;;;;;5.20;1.15;;;11.70;67.70;;;;;;5028814;28;20437;-67
2022/03/18 10:24:30;;;;;;;5.10;1.30;;;12.00;66.90;;;;;;5029946;28;20017;-67
2022/03/18 10:27:15;;;;;;;2.17;0.90;;;12.20;66.70;;;;;;5028421;28;20104;-67
2022/03/18 10:29:46;;;;;;;2.47;0.70;;;12.50;66.30;;;;;;5014891;28;20025;-67
2022/03/18 10:32:12;;;;;;;5.47;1.25;;;12.70;65.40;;;;;;5027036;28;20096;-66
2022/03/18 10:37:25;;;;;;;4.22;1.58;;;13.30;64.10;;;;;;5032104;28;20060;-66
2022/03/18 10:39:58;;;;;;;4.53;1.08;;;13.70;63.70;;;;;;5033437;28;20043;-67
2022/03/18 10:42:24;;;;;;;3.40;1.10;;;14.10;63.80;;;;;;5015777;28;20128;-66
2022/03/18 10:44:53;;;;;;;3.90;1.00;;;14.60;63.60;;;;;;5033183;28;20092;-67
2022/03/18 10:47:31;;;;;;;3.67;1.00;;;15.20;62.30;;;;;;5033533;28;20021;-67
2022/03/18 10:50:12;;;;;;;5.07;1.05;;;16.30;60.70;;;;;;5031499;28;20099;-68
2022/03/18 10:52:38;;;;;;;3.45;1.08;;;17.40;58.70;;;;;;5031620;28;20100;-67
2022/03/18 10:55:41;;;;;;;4.80;0.85;;;18.40;59.40;;;;;;5033087;28;20030;-67
2022/03/18 10:58:17;;;;;;;3.25;0.95;;;19.70;58.50;;;;;;5029472;28;20037;-68
2022/03/18 11:00:51;;;;;;;5.53;1.20;;;22.50;54.20;;;;;;5033444;28;20129;-68
2022/03/18 11:03:18;;;;;;;3.90;0.95;;;26.20;48.70;;;;;;5033139;28;20018;-68
2022/03/18 11:05:47;;;;;;;4.75;1.02;;;28.90;44.70;;;;;;5033221;28;20117;-68
2022/03/18 11:08:15;;;;;;;1.70;0.70;;;31.10;41.80;;;;;;5031161;28;20064;-68
2022/03/18 11:13:36;;;;;;;5.38;1.90;;;34.80;35.70;;;;;;5031933;28;20103;-68
2022/03/18 11:16:03;;;;;;;3.92;1.15;;;36.40;32.10;;;;;;5002904;28;20462;-66
2022/03/18 11:18:30;;;;;;;3.13;1.00;;;37.80;31.80;;;;;;5014616;28;20026;-67
2022/03/18 11:20:58;;;;;;;5.13;1.55;;;39.00;31.00;;;;;;5014721;28;20076;-67
2022/03/18 11:23:25;;;;;;;2.97;1.20;;;40.30;30.40;;;;;;5014886;28;20029;-67
2022/03/18 11:25:55;;;;;;;4.93;1.40;;;41.40;29.00;;;;;;5014691;28;20265;-67
2022/03/18 11:28:22;;;;;;;4.28;1.60;;;42.20;28.60;;;;;;5013975;28;20474;-67
2022/03/18 11:30:49;;;;;;;3.33;1.42;;;43.20;28.10;;;;;;5016020;28;20037;-67
2022/03/18 11:33:14;;;;;;;3.20;1.60;;;44.20;27.80;;;;;;5032730;28;20025;-67
2022/03/18 11:35:49;;;;;;;4.47;1.67;;;44.80;26.80;;;;;;5032466;28;20087;-67
2022/03/18 11:38:15;;;;;;;3.03;1.15;;;45.50;26.50;;;;;;5032194;28;20492;-67
2022/03/18 11:40:52;;;;;;;3.65;1.42;;;46.10;26.30;;;;;;5032158;28;20025;-67
2022/03/18 11:43:35;;;;;;;5.90;1.55;;;46.80;25.70;;;;;;5030718;28;20025;-67
2022/03/18 11:46:12;;;;;;;2.67;1.30;;;47.30;25.40;;;;;;5029995;28;20049;-67
2022/03/18 11:48:41;;;;;;;4.75;1.30;;;47.60;25.40;;;;;;5029999;28;20022;-67
2022/03/18 11:51:36;;;;;;;2.60;1.50;;;48.00;24.90;;;;;;5030097;28;20108;-67
2022/03/18 11:54:16;;;;;;;2.63;1.40;;;48.40;25.00;;;;;;5032397;28;20388;-67
2022/03/18 11:56:47;;;;;;;3.50;1.85;;;48.70;24.70;;;;;;5013279;28;20042;-67
2022/03/18 11:59:25;;;;;;;5.28;1.58;;;49.00;24.50;;;;;;5031883;28;20017;-67
2022/03/18 12:02:03;;;;;;;3.38;1.67;;;49.50;24.00;;;;;;5031631;28;20036;-67
2022/03/18 12:04:34;;;;;;;4.38;1.95;;;49.30;23.90;;;;;;5033358;28;20053;-67
2022/03/18 12:07:07;;;;;;;3.22;1.73;;;49.20;24.00;;;;;;5033687;28;20025;-67
2022/03/18 12:09:49;;;;;;;3.83;2.42;;;49.50;23.80;;;;;;5033471;28;20047;-67
2022/03/18 12:12:17;;;;;;;3.08;1.45;;;49.90;24.00;;;;;;5032389;28;20033;-67
2022/03/18 12:14:42;;;;;;;3.10;1.90;;;50.30;24.00;;;;;;5031724;28;20014;-68
2022/03/18 12:17:08;;;;;;;5.03;2.17;;;50.40;23.60;;;;;;5032732;28;20024;-67
2022/03/18 12:19:36;;;;;;;2.63;1.92;;;50.50;23.30;;;;;;5031555;28;20389;-68
2022/03/18 12:22:03;;;;;;;3.15;1.73;;;50.80;23.40;;;;;;5014895;28;20432;-67
2022/03/18 12:24:35;;;;;;;3.20;1.77;;;50.90;23.50;;;;;;5030426;28;20029;-67
2022/03/18 12:27:00;;;;;;;3.67;2.28;;;50.90;23.40;;;;;;5033117;28;20037;-66
2022/03/18 12:29:29;;;;;;;4.30;1.73;;;50.70;23.90;;;;;;5033007;28;20389;-67
2022/03/18 12:32:09;;;;;;;3.35;1.98;;;50.80;23.30;;;;;;5030664;28;20029;-68
2022/03/18 12:34:46;;;;;;;3.38;2.00;;;50.80;23.20;;;;;;5030628;28;20072;-67
2022/03/18 12:37:23;;;;;;;3.15;1.88;;;50.70;23.30;;;;;;5022467;28;20053;-68
2022/03/18 12:40:04;;;;;;;5.25;1.90;;;50.70;23.00;;;;;;5032813;28;20117;-68
2022/03/18 12:42:29;;;;;;;3.45;2.13;;;50.40;23.00;;;;;;5031524;28;20390;-67
2022/03/18 12:44:59;;;;;;;3.20;1.70;;;49.80;22.70;;;;;;5023326;28;20026;-67
2022/03/18 12:47:30;;;;;;;4.05;1.60;;;49.00;22.70;;;;;;5032270;28;20079;-67
2022/03/18 12:49:56;;;;;;;2.95;1.88;;;48.50;23.10;;;;;;5030762;28;20563;-67
2022/03/18 12:52:22;;;;;;;4.13;2.00;;;47.90;22.80;;;;;;5026375;28;20017;-67
2022/03/18 12:55:09;;;;;;;1.95;1.42;;;46.30;23.00;;;;;;5030934;28;20342;-67
2022/03/18 12:57:38;;;;;;;3.75;1.80;;;46.00;23.60;;;;;;5032645;28;20032;-67
2022/03/18 13:00:06;;;;;;;1.88;1.27;;;46.00;23.40;;;;;;5030573;28;20065;-67
2022/03/18 13:02:34;;;;;;;2.65;1.60;;;45.90;23.60;;;;;;5007758;28;20064;-67
2022/03/18 13:05:02;;;;;;;3.65;1.50;;;45.40;23.60;;;;;;5030770;28;20021;-67
2022/03/18 13:07:28;;;;;;;2.97;1.48;;;45.20;23.70;;;;;;5030826;28;20018;-67
2022/03/18 13:09:55;;;;;;;4.55;1.60;;;45.00;23.80;;;;;;5029831;28;20045;-67
2022/03/18 13:12:31;;;;;;;1.73;1.23;;;44.70;23.80;;;;;;5028969;28;20071;-68
2022/03/18 13:15:15;;;;;;;3.55;1.50;;;44.60;23.90;;;;;;5027682;28;20022;-67
2022/03/18 13:17:42;;;;;;;2.10;1.20;;;44.50;24.00;;;;;;5015653;28;20124;-67
2022/03/18 13:20:28;;;;;;;2.25;1.17;;;44.10;23.90;;;;;;5031258;28;20013;-67
2022/03/18 13:22:59;;;;;;;3.03;1.27;;;43.40;24.10;;;;;;5031990;28;20446;-68